createdAt,value
2023-01-25T00:01:38.809Z,10.58
2023-01-25T00:04:07.034Z,12.98
2023-01-25T00:06:34.581Z,9.88
2023-01-25T00:09:02.473Z,11.25
2023-01-25T00:11:30.638Z,9.83
2023-01-25T00:13:58.349Z,9.93
2023-01-25T00:16:34.858Z,9.85
2023-01-25T00:19:04.190Z,10.23
2023-01-25T00:21:35.089Z,11.85
2023-01-25T00:24:04.018Z,10.58
2023-01-25T00:26:33.749Z,9.03
2023-01-25T00:29:02.040Z,11.55
2023-01-25T00:31:36.582Z,10.50
2023-01-25T00:34:26.142Z,10.10
2023-01-25T00:37:00.604Z,9.60
2023-01-25T00:41:56.810Z,12.18
2023-01-25T00:44:24.828Z,9.85
2023-01-25T00:47:01.159Z,10.68
2023-01-25T00:49:31.035Z,12.43
2023-01-25T00:51:59.286Z,11.03
2023-01-25T00:54:27.129Z,10.88
2023-01-25T00:56:56.733Z,10.55
2023-01-25T00:59:25.257Z,14.07
2023-01-25T01:01:54.857Z,9.83
2023-01-25T01:04:26.280Z,9.63
2023-01-25T01:06:55.193Z,13.05
2023-01-25T01:09:24.533Z,9.50
2023-01-25T01:11:53.994Z,12.18
2023-01-25T01:14:24.557Z,10.48
2023-01-25T01:16:52.390Z,9.10
2023-01-25T01:19:20.431Z,8.15
2023-01-25T01:21:48.432Z,8.43
2023-01-25T01:24:18.289Z,8.85
2023-01-25T01:26:45.903Z,12.13
2023-01-25T01:29:16.558Z,9.60
2023-01-25T01:31:44.481Z,10.68
2023-01-25T01:34:20.724Z,11.43
2023-01-25T01:36:48.400Z,8.88
2023-01-25T01:39:16.316Z,9.60
2023-01-25T01:41:44.259Z,10.50
2023-01-25T01:44:25.679Z,13.00
2023-01-25T01:46:59.156Z,8.90
2023-01-25T01:52:20.755Z,10.25
2023-01-25T01:54:56.403Z,10.10
2023-01-25T01:57:38.441Z,8.38
2023-01-25T02:00:19.407Z,10.75
2023-01-25T02:02:55.309Z,8.20
2023-01-25T02:05:27.323Z,10.13
2023-01-25T02:07:57.006Z,10.08
2023-01-25T02:10:31.831Z,12.33
2023-01-25T02:13:00.630Z,10.78
2023-01-25T02:15:35.064Z,10.72
2023-01-25T02:18:05.819Z,10.03
2023-01-25T02:20:50.847Z,9.05
2023-01-25T02:23:34.362Z,8.35
2023-01-25T02:26:13.466Z,9.90
2023-01-25T02:28:50.898Z,9.55
2023-01-25T02:31:19.143Z,9.45
2023-01-25T02:33:47.060Z,12.40
2023-01-25T02:36:24.580Z,11.20
2023-01-25T02:38:58.744Z,13.38
2023-01-25T02:41:38.127Z,14.10
2023-01-25T02:44:09.835Z,11.15
2023-01-25T02:46:39.856Z,10.15
2023-01-25T02:49:09.950Z,9.83
2023-01-25T02:51:41.429Z,10.38
2023-01-25T02:56:58.650Z,9.48
2023-01-25T02:59:27.656Z,10.75
2023-01-25T03:02:00.828Z,10.20
2023-01-25T03:04:32.304Z,11.30
2023-01-25T03:07:00.476Z,11.22
2023-01-25T03:09:29.701Z,9.18
2023-01-25T03:11:57.633Z,9.68
2023-01-25T03:14:25.971Z,8.63
2023-01-25T03:16:54.263Z,8.88
2023-01-25T03:19:23.569Z,8.93
2023-01-25T03:24:38.027Z,7.95
2023-01-25T03:27:19.153Z,8.28
2023-01-25T03:29:57.532Z,11.15
2023-01-25T03:32:31.318Z,8.48
2023-01-25T03:35:01.299Z,8.98
2023-01-25T03:37:30.546Z,7.40
2023-01-25T03:39:58.799Z,7.53
2023-01-25T03:42:27.240Z,6.47
2023-01-25T03:44:57.070Z,6.17
2023-01-25T03:47:25.528Z,6.62
2023-01-25T03:49:55.229Z,6.65
2023-01-25T03:52:51.661Z,5.67
2023-01-25T03:55:38.239Z,7.22
2023-01-25T03:58:06.460Z,6.72
2023-01-25T04:00:35.252Z,5.87
2023-01-25T04:03:02.789Z,6.65
2023-01-25T04:05:30.928Z,7.03
2023-01-25T04:07:58.524Z,7.08
2023-01-25T04:10:28.737Z,5.30
2023-01-25T04:13:03.323Z,5.90
2023-01-25T04:15:31.381Z,6.70
2023-01-25T04:18:01.114Z,6.00
2023-01-25T04:20:36.803Z,7.05
2023-01-25T04:23:04.261Z,7.20
2023-01-25T04:25:34.432Z,6.35
2023-01-25T04:28:02.658Z,7.12
2023-01-25T04:30:31.885Z,6.95
2023-01-25T04:33:05.048Z,5.65
2023-01-25T04:35:33.164Z,6.28
2023-01-25T04:38:05.150Z,5.65
2023-01-25T04:40:38.814Z,5.60
2023-01-25T04:43:08.507Z,5.92
2023-01-25T04:45:36.778Z,5.60
2023-01-25T04:48:09.942Z,5.62
2023-01-25T04:50:42.480Z,5.67
2023-01-25T04:53:12.891Z,5.37
2023-01-25T04:55:43.639Z,7.28
2023-01-25T04:58:11.153Z,7.15
2023-01-25T05:00:39.641Z,6.97
2023-01-25T05:03:07.616Z,6.17
2023-01-25T05:05:35.472Z,6.33
2023-01-25T05:08:07.672Z,6.87
2023-01-25T05:10:35.459Z,6.72
2023-01-25T05:13:22.136Z,5.30
2023-01-25T05:15:51.664Z,6.03
2023-01-25T05:18:19.727Z,6.80
2023-01-25T05:20:49.005Z,6.25
2023-01-25T05:23:17.473Z,6.83
2023-01-25T05:26:06.751Z,5.90
2023-01-25T05:28:35.121Z,7.55
2023-01-25T05:31:08.423Z,6.78
2023-01-25T05:33:36.676Z,7.67
2023-01-25T05:36:04.760Z,6.05
2023-01-25T05:38:34.312Z,6.25
2023-01-25T05:41:02.245Z,8.38
2023-01-25T05:43:30.101Z,8.08
2023-01-25T05:45:58.948Z,8.45
2023-01-25T05:48:26.713Z,8.40
2023-01-25T05:50:58.526Z,8.10
2023-01-25T05:53:29.716Z,6.80
2023-01-25T05:56:11.291Z,6.87
2023-01-25T05:58:39.913Z,7.62
2023-01-25T06:01:08.761Z,6.25
2023-01-25T06:03:41.147Z,7.08
2023-01-25T06:06:09.335Z,6.67
2023-01-25T06:08:37.369Z,7.87
2023-01-25T06:11:12.027Z,10.78
2023-01-25T06:13:41.666Z,11.60
2023-01-25T06:16:09.885Z,9.88
2023-01-25T06:18:46.518Z,11.55
2023-01-25T06:21:33.545Z,13.25
2023-01-25T06:24:01.606Z,9.55
2023-01-25T06:26:29.728Z,11.53
2023-01-25T06:28:57.386Z,9.65
2023-01-25T06:31:25.840Z,11.25
2023-01-25T06:33:53.639Z,12.03
2023-01-25T06:36:26.538Z,11.68
2023-01-25T06:38:54.654Z,8.80
2023-01-25T06:41:23.491Z,10.93
2023-01-25T06:43:54.392Z,11.22
2023-01-25T06:46:33.557Z,9.85
2023-01-25T06:49:01.678Z,8.48
2023-01-25T06:51:30.312Z,8.48
2023-01-25T06:54:00.461Z,11.20
2023-01-25T06:56:28.134Z,10.63
2023-01-25T06:58:55.690Z,8.58
2023-01-25T07:01:27.936Z,10.63
2023-01-25T07:03:58.215Z,9.10
2023-01-25T07:06:27.645Z,8.88
2023-01-25T07:08:54.925Z,9.48
2023-01-25T07:11:22.866Z,13.15
2023-01-25T07:13:51.321Z,12.23
2023-01-25T07:16:27.660Z,12.68
2023-01-25T07:18:55.865Z,12.20
2023-01-25T07:21:24.441Z,10.03
2023-01-25T07:23:52.983Z,10.85
2023-01-25T07:26:26.781Z,10.30
2023-01-25T07:28:56.581Z,9.48
2023-01-25T07:31:25.517Z,10.08
2023-01-25T07:33:58.902Z,7.70
2023-01-25T07:36:26.898Z,12.03
2023-01-25T07:38:55.735Z,12.10
2023-01-25T07:41:25.343Z,11.95
2023-01-25T07:43:53.113Z,14.23
2023-01-25T07:46:40.637Z,15.35
2023-01-25T07:49:08.240Z,15.23
2023-01-25T07:51:36.895Z,12.70
2023-01-25T07:54:05.531Z,11.38
2023-01-25T07:56:38.855Z,12.20
2023-01-25T07:59:08.798Z,10.10
2023-01-25T08:01:37.507Z,12.28
2023-01-25T08:04:06.354Z,15.05
2023-01-25T08:06:38.630Z,14.25
2023-01-25T08:09:12.526Z,15.40
2023-01-25T08:11:41.855Z,14.35
2023-01-25T08:14:09.693Z,11.97
2023-01-25T08:16:40.150Z,11.88
2023-01-25T08:19:07.768Z,13.10
2023-01-25T08:21:35.962Z,14.55
2023-01-25T08:24:06.621Z,9.88
2023-01-25T08:26:36.446Z,10.88
2023-01-25T08:29:05.011Z,9.40
2023-01-25T08:31:55.900Z,7.65
2023-01-25T08:34:23.671Z,10.90
2023-01-25T08:39:19.919Z,11.68
2023-01-25T08:41:47.660Z,12.40
2023-01-25T08:44:24.384Z,12.10
2023-01-25T08:46:53.004Z,12.00
2023-01-25T08:49:21.145Z,12.88
2023-01-25T08:51:51.451Z,15.63
2023-01-25T08:54:19.543Z,13.28
2023-01-25T08:56:47.179Z,11.57
2023-01-25T08:59:15.191Z,11.03
2023-01-25T09:01:43.579Z,13.30
2023-01-25T09:04:10.910Z,11.00
2023-01-25T09:06:39.742Z,11.15
2023-01-25T09:09:08.808Z,14.98
2023-01-25T09:11:38.429Z,12.90
2023-01-25T09:14:06.776Z,10.75
2023-01-25T09:16:34.997Z,13.25
2023-01-25T09:19:10.443Z,20.30
2023-01-25T09:21:39.786Z,16.45
2023-01-25T09:24:08.644Z,15.35
2023-01-25T09:26:42.937Z,14.50
2023-01-25T09:29:12.259Z,14.58
2023-01-25T09:31:44.303Z,14.13
2023-01-25T09:34:40.066Z,13.22
2023-01-25T09:37:08.006Z,13.08
2023-01-25T09:39:35.797Z,16.12
2023-01-25T09:42:14.578Z,16.35
2023-01-25T09:44:52.990Z,17.82
2023-01-25T09:48:03.007Z,19.35
2023-01-25T09:50:38.695Z,16.77
2023-01-25T09:53:22.104Z,16.62
2023-01-25T09:55:53.688Z,16.50
2023-01-25T09:58:25.213Z,12.98
2023-01-25T10:01:14.521Z,12.73
2023-01-25T10:03:54.461Z,14.03
2023-01-25T10:06:30.353Z,12.43
2023-01-25T10:09:09.007Z,94.60
2023-01-25T10:11:39.447Z,32.25
2023-01-25T10:14:19.598Z,16.00
2023-01-25T10:16:51.461Z,10.38
2023-01-25T10:19:42.961Z,16.45
2023-01-25T10:22:24.193Z,16.55
2023-01-25T10:25:01.946Z,11.78
2023-01-25T10:27:36.797Z,14.03
2023-01-25T10:30:11.336Z,12.80
2023-01-25T10:32:51.155Z,14.05
2023-01-25T10:35:34.463Z,10.00
2023-01-25T10:37:51.591Z,13.35
2023-01-25T10:40:25.004Z,11.15
2023-01-25T10:43:03.430Z,9.80
2023-01-25T10:45:31.173Z,11.05
2023-01-25T10:48:05.727Z,10.93
2023-01-25T10:50:43.213Z,11.60
2023-01-25T10:53:29.927Z,12.88
2023-01-25T10:56:04.404Z,9.78
2023-01-25T10:58:43.854Z,9.95
2023-01-25T11:01:14.583Z,11.20
2023-01-25T11:03:46.414Z,9.73
2023-01-25T11:06:13.918Z,7.67
2023-01-25T11:08:43.488Z,8.73
2023-01-25T11:11:23.956Z,9.80
2023-01-25T11:13:55.364Z,9.08
2023-01-25T11:16:38.552Z,9.48
2023-01-25T11:19:27.925Z,8.58
2023-01-25T11:21:58.143Z,8.35
2023-01-25T11:24:34.827Z,9.75
2023-01-25T11:27:26.596Z,7.72
2023-01-25T11:30:13.857Z,8.60
2023-01-25T11:32:42.634Z,7.25
2023-01-25T11:35:20.684Z,8.53
2023-01-25T11:38:15.215Z,10.98
2023-01-25T11:40:49.805Z,8.98
2023-01-25T11:43:27.248Z,7.85
2023-01-25T11:46:20.067Z,6.95
2023-01-25T11:48:54.112Z,7.97
2023-01-25T11:51:34.838Z,6.40
2023-01-25T11:54:15.148Z,7.08
2023-01-25T11:57:12.543Z,7.62
2023-01-25T11:59:55.146Z,9.18
2023-01-25T12:02:52.719Z,12.33
2023-01-25T12:05:45.054Z,10.60
2023-01-25T12:08:43.933Z,8.45
2023-01-25T12:11:35.000Z,8.80
2023-01-25T12:14:18.947Z,8.20
2023-01-25T12:16:56.636Z,8.60
2023-01-25T12:19:54.226Z,9.73
2023-01-25T12:22:56.407Z,10.05
2023-01-25T12:25:40.384Z,8.75
2023-01-25T12:28:21.343Z,8.78
2023-01-25T12:31:01.898Z,8.15
2023-01-25T12:33:39.310Z,9.30
2023-01-25T12:36:20.260Z,11.08
2023-01-25T12:39:07.066Z,8.40
2023-01-25T12:42:05.140Z,9.38
2023-01-25T12:44:55.352Z,10.18
2023-01-25T12:47:38.439Z,7.85
2023-01-25T12:50:22.333Z,8.20
2023-01-25T12:52:53.948Z,7.85
2023-01-25T12:55:23.665Z,8.28
2023-01-25T12:58:01.659Z,8.50
2023-01-25T13:01:05.712Z,7.37
2023-01-25T13:03:46.331Z,8.10
2023-01-25T13:06:32.873Z,6.92
2023-01-25T13:09:24.457Z,4.87
2023-01-25T13:11:52.553Z,6.37
2023-01-25T13:14:39.339Z,6.50
2023-01-25T13:17:23.128Z,5.65
2023-01-25T13:19:53.735Z,6.87
2023-01-25T13:22:45.415Z,7.33
2023-01-25T13:25:22.321Z,6.42
2023-01-25T13:27:50.420Z,7.87
2023-01-25T13:30:33.550Z,8.13
2023-01-25T13:33:07.483Z,7.65
2023-01-25T13:35:38.263Z,7.97
2023-01-25T13:38:25.134Z,6.50
2023-01-25T13:41:12.537Z,10.38
2023-01-25T13:43:46.343Z,6.70
2023-01-25T13:46:17.191Z,6.60
2023-01-25T13:48:54.173Z,9.10
2023-01-25T13:51:23.530Z,6.72
2023-01-25T13:53:59.520Z,7.30
2023-01-25T13:56:29.955Z,8.00
2023-01-25T13:58:57.941Z,7.45
2023-01-25T14:01:25.903Z,7.97
2023-01-25T14:04:01.394Z,9.13
2023-01-25T14:06:36.273Z,7.87
2023-01-25T14:11:41.227Z,8.90
2023-01-25T14:14:18.754Z,7.45
2023-01-25T14:16:46.528Z,6.85
2023-01-25T14:19:23.060Z,9.90
2023-01-25T14:21:51.280Z,6.25
2023-01-25T14:24:20.902Z,8.03
2023-01-25T14:26:50.126Z,8.55
2023-01-25T14:29:35.957Z,7.95
2023-01-25T14:31:51.815Z,8.85
2023-01-25T14:34:20.984Z,8.85
2023-01-25T14:37:02.559Z,9.25
2023-01-25T14:39:33.804Z,12.78
2023-01-25T14:42:02.607Z,28.10
2023-01-25T14:44:30.833Z,8.33
2023-01-25T14:47:23.994Z,9.40
2023-01-25T14:49:51.822Z,9.58
2023-01-25T14:52:22.329Z,8.45
2023-01-25T14:54:59.037Z,9.08
2023-01-25T14:57:35.923Z,8.20
2023-01-25T15:00:06.867Z,10.65
2023-01-25T15:02:38.358Z,11.22
2023-01-25T15:05:28.179Z,8.80
2023-01-25T15:08:12.488Z,8.68
2023-01-25T15:10:53.480Z,8.83
2023-01-25T15:13:27.175Z,10.78
2023-01-25T15:15:58.914Z,10.72
2023-01-25T15:18:51.453Z,9.15
2023-01-25T15:21:21.946Z,11.15
2023-01-25T15:23:51.819Z,9.05
2023-01-25T15:26:22.801Z,9.93
2023-01-25T15:28:54.955Z,11.75
2023-01-25T15:31:26.901Z,11.33
2023-01-25T15:34:00.271Z,10.28
2023-01-25T15:38:57.223Z,10.43
2023-01-25T15:41:25.629Z,10.15
2023-01-25T15:43:54.046Z,12.25
2023-01-25T15:46:28.285Z,14.15
2023-01-25T15:48:57.238Z,12.18
2023-01-25T15:51:26.315Z,12.85
2023-01-25T15:53:54.193Z,12.55
2023-01-25T15:56:31.697Z,17.00
2023-01-25T15:59:03.403Z,16.73
2023-01-25T16:01:30.933Z,17.02
2023-01-25T16:04:00.320Z,14.20
2023-01-25T16:06:52.917Z,12.03
2023-01-25T16:09:30.151Z,12.65
2023-01-25T16:12:00.517Z,14.55
2023-01-25T16:14:31.174Z,14.83
2023-01-25T16:17:03.590Z,15.48
2023-01-25T16:19:32.161Z,11.68
2023-01-25T16:22:00.115Z,12.47
2023-01-25T16:24:28.282Z,11.78
2023-01-25T16:26:58.439Z,13.18
2023-01-25T16:29:29.895Z,13.93
2023-01-25T16:31:58.705Z,14.10
2023-01-25T16:34:27.113Z,12.93
2023-01-25T16:37:15.731Z,15.60
2023-01-25T16:39:43.410Z,17.92
2023-01-25T16:42:14.679Z,17.60
2023-01-25T16:44:45.493Z,15.83
2023-01-25T16:47:15.577Z,15.53
2023-01-25T16:49:42.991Z,16.97
2023-01-25T16:52:12.461Z,16.00
2023-01-25T16:54:40.483Z,19.67
2023-01-25T16:57:19.938Z,15.83
2023-01-25T16:59:39.657Z,15.43
2023-01-25T17:02:08.226Z,16.62
2023-01-25T17:04:36.006Z,16.93
2023-01-25T17:07:04.056Z,15.70
2023-01-25T17:09:31.953Z,15.32
2023-01-25T17:11:59.834Z,17.67
2023-01-25T17:14:27.675Z,14.25
2023-01-25T17:16:55.837Z,19.12
2023-01-25T17:19:23.824Z,21.50
2023-01-25T17:21:52.045Z,16.60
2023-01-25T17:24:22.163Z,17.52
2023-01-25T17:26:51.369Z,15.93
2023-01-25T17:29:19.439Z,18.65
2023-01-25T17:31:46.975Z,17.73
2023-01-25T17:34:19.618Z,17.52
2023-01-25T17:36:48.794Z,16.35
2023-01-25T17:39:18.063Z,15.98
2023-01-25T17:41:50.817Z,16.82
2023-01-25T17:44:21.148Z,18.87
2023-01-25T17:46:49.875Z,15.68
2023-01-25T17:49:18.498Z,14.50
2023-01-25T17:51:46.882Z,20.35
2023-01-25T17:54:15.144Z,22.85
2023-01-25T17:56:42.530Z,24.85
2023-01-25T17:59:14.538Z,20.62
2023-01-25T18:01:45.714Z,18.45
2023-01-25T18:04:13.695Z,18.98
2023-01-25T18:06:44.626Z,21.55
2023-01-25T18:09:12.494Z,17.85
2023-01-25T18:11:41.366Z,19.57
2023-01-25T18:14:12.914Z,19.55
2023-01-25T18:16:42.103Z,21.82
2023-01-25T18:19:10.741Z,25.75
2023-01-25T18:21:40.011Z,19.60
2023-01-25T18:24:29.426Z,31.55
2023-01-25T18:27:10.314Z,21.00
2023-01-25T18:29:50.373Z,16.57
2023-01-25T18:32:18.675Z,19.62
2023-01-25T18:34:49.146Z,19.57
2023-01-25T18:37:21.104Z,30.23
2023-01-25T18:39:51.233Z,18.77
2023-01-25T18:42:20.234Z,19.55
2023-01-25T18:44:50.780Z,23.12
2023-01-25T18:47:20.645Z,20.27
2023-01-25T18:49:49.805Z,19.45
2023-01-25T18:52:19.392Z,19.40
2023-01-25T18:54:47.466Z,16.93
2023-01-25T18:57:16.093Z,28.38
2023-01-25T18:59:44.110Z,29.32
2023-01-25T19:02:14.088Z,29.50
2023-01-25T19:04:42.739Z,29.60
2023-01-25T19:07:13.925Z,25.52
2023-01-25T19:09:46.715Z,28.10
2023-01-25T19:12:14.471Z,20.23
2023-01-25T19:14:42.513Z,25.20
2023-01-25T19:17:11.096Z,21.42
2023-01-25T19:19:52.803Z,23.65
2023-01-25T19:22:21.191Z,25.62
2023-01-25T19:24:49.325Z,23.10
2023-01-25T19:27:17.042Z,20.10
2023-01-25T19:29:45.088Z,21.02
2023-01-25T19:32:12.872Z,18.85
2023-01-25T19:34:40.686Z,18.50
2023-01-25T19:37:08.440Z,21.12
2023-01-25T19:39:36.209Z,19.77
2023-01-25T19:42:05.128Z,22.42
2023-01-25T19:44:33.158Z,20.32
2023-01-25T19:47:01.075Z,23.50
2023-01-25T19:49:29.524Z,20.32
2023-01-25T19:51:57.964Z,21.02
2023-01-25T19:54:25.532Z,20.68
2023-01-25T19:56:53.813Z,19.92
2023-01-25T19:59:26.074Z,22.65
2023-01-25T20:02:01.923Z,19.42
2023-01-25T20:04:33.116Z,19.92
2023-01-25T20:07:03.780Z,19.57
2023-01-25T20:09:34.972Z,18.27
2023-01-25T20:12:19.682Z,22.15
2023-01-25T20:17:38.238Z,21.62
2023-01-25T20:20:23.513Z,33.08
2023-01-25T20:22:56.574Z,39.15
2023-01-25T20:25:28.346Z,28.42
2023-01-25T20:28:11.035Z,31.23
2023-01-25T20:30:39.532Z,36.53
2023-01-25T20:33:08.051Z,31.57
2023-01-25T20:35:53.855Z,39.05
2023-01-25T20:38:22.395Z,31.10
2023-01-25T20:46:42.766Z,29.15
2023-01-25T20:49:20.311Z,25.62
2023-01-25T20:51:50.800Z,28.05
2023-01-25T20:54:21.463Z,35.92
2023-01-25T20:57:04.925Z,31.90
2023-01-25T20:59:40.364Z,33.23
2023-01-25T21:02:13.810Z,35.88
2023-01-25T21:04:56.659Z,30.50
2023-01-25T21:10:25.017Z,21.00
2023-01-25T21:21:44.306Z,16.52
2023-01-25T21:24:15.915Z,16.87
2023-01-25T21:26:59.007Z,20.52
2023-01-25T21:29:27.597Z,18.15
2023-01-25T21:32:10.193Z,17.60
2023-01-25T21:34:53.317Z,17.05
2023-01-25T21:37:23.101Z,18.90
2023-01-25T21:39:51.559Z,18.70
2023-01-25T21:42:19.681Z,18.87
2023-01-25T21:45:09.677Z,19.17
2023-01-25T21:47:37.543Z,19.98
2023-01-25T21:52:51.654Z,17.95
2023-01-25T21:55:19.648Z,20.40
2023-01-25T21:57:47.730Z,21.55
2023-01-25T22:00:18.158Z,20.90
2023-01-25T22:02:47.453Z,19.98
2023-01-25T22:05:15.605Z,20.52
2023-01-25T22:07:43.537Z,19.35
2023-01-25T22:10:12.555Z,16.55
2023-01-25T22:12:40.616Z,18.52
2023-01-25T22:15:09.228Z,16.80
2023-01-25T22:17:36.933Z,18.67
2023-01-25T22:20:05.341Z,19.73
2023-01-25T22:22:33.171Z,23.10
2023-01-25T22:25:01.096Z,20.50
2023-01-25T22:27:47.433Z,20.85
2023-01-25T22:30:15.883Z,19.17
2023-01-25T22:32:43.812Z,18.37
2023-01-25T22:35:12.314Z,20.55
2023-01-25T22:37:40.154Z,17.80
2023-01-25T22:40:13.973Z,18.42
2023-01-25T22:42:41.807Z,20.00
2023-01-25T22:45:10.141Z,18.90
2023-01-25T22:47:37.744Z,16.00
2023-01-25T22:50:06.460Z,22.52
2023-01-25T22:52:34.218Z,20.30
2023-01-25T22:55:02.124Z,19.62
2023-01-25T22:57:29.709Z,18.80
2023-01-25T22:59:57.726Z,22.40
2023-01-25T23:02:26.272Z,21.33
2023-01-25T23:04:54.108Z,21.33
2023-01-25T23:07:21.849Z,20.30
2023-01-25T23:09:51.329Z,21.97
2023-01-25T23:12:19.378Z,20.02
2023-01-25T23:14:55.134Z,18.87
2023-01-25T23:17:44.601Z,18.30
2023-01-25T23:20:14.120Z,21.62
2023-01-25T23:22:42.659Z,17.45
2023-01-25T23:25:12.977Z,19.05
2023-01-25T23:27:41.464Z,16.42
2023-01-25T23:30:11.082Z,20.12
2023-01-25T23:32:39.179Z,19.62
2023-01-25T23:35:07.660Z,20.57
2023-01-25T23:37:35.256Z,19.25
2023-01-25T23:40:06.448Z,19.75
2023-01-25T23:42:37.419Z,18.85
2023-01-25T23:45:07.321Z,17.48
2023-01-25T23:47:37.247Z,18.35
2023-01-25T23:50:06.145Z,21.77
2023-01-25T23:52:35.422Z,19.23
2023-01-25T23:55:03.599Z,19.65
2023-01-25T23:57:31.611Z,18.23
2023-01-25T23:59:59.040Z,16.60
